메인 페이지
METAR-TAF:

METAR-TAF

공항 :

Jacqueline Cochran Regional Airport

Thermal, 캘리포니아, 미국

위도: 33-37-40N, 경도: 116-09-36W, 고도: -34m

현재 날씨관측

예보는 42분 전, 18:52시(UTC)에 발표되었습니다.
여러 방향의 바람 3kt
온도 38°C
습도 11%
기압 1009 hPa
시정: 16.1km
맑음

METAR: KTRM 131852Z AUTO VRB03KT 10SM CLR 38/03 A2979 RMK AO2 SLP089 T03830028

시각: 12:34 (19:34 UTC)

예보

예보는 2 시간 10분 전, 17:24시(UTC)에 발표되었습니다.
예보 대상 시간: 13일 18시부터 14일 18시까지 (UTC)
북북서5kt
시정: 10km
맑음
13일 2000시부터 (UTC)
동남동9kt
시정: 10km
맑음
14일 0200시부터 (UTC)
북북서13kt, 순간 최대 풍속 25kt
시정: 10km
맑음
14일 1200시부터 (UTC)
북서7kt
시정: 10km
맑음

TAF: KTRM 131724Z 1318/1418 33005KT P6SM SKC FM132000 12009KT P6SM SKC FM140200 33013G25KT P6SM SKC FM141200 32007KT P6SM SKC

4,000개 이상의 공항 관측 자료 및 예보 (METAR 및 TAF 보고).

지도상에서 검색 가능한 기상관측소가 노란 점과 빨간 점으로 표시되어 있습니다.

기상관측소 명을 보려면 표시 위로 마우스를 이동하세요.

날씨 관측과 예보를 보려면 클릭하세요.

지도 변경 : 확대하려면 엑스 표시가 있는 녹색 버튼, 축소하려면 빼기 표시가 있는 녹색 버튼, 다음 페이지의 지도를 보려면 녹색 화살표를 클릭하세요.


METAR-TAF: